createdAt,value
2022-12-13T00:01:47.152Z,100702.97
2022-12-13T00:04:16.526Z,100695.53
2022-12-13T00:06:44.368Z,100695.16
2022-12-13T00:09:13.871Z,100689.25
2022-12-13T00:11:41.629Z,100680.63
2022-12-13T00:14:11.494Z,100685.25
2022-12-13T00:16:39.291Z,100683.78
2022-12-13T00:19:07.226Z,100684.41
2022-12-13T00:21:36.406Z,100684.75
2022-12-13T00:24:07.118Z,100687.41
2022-12-13T00:26:35.243Z,100680.81
2022-12-13T00:29:04.736Z,100684.09
2022-12-13T00:34:20.431Z,100676.41
2022-12-13T00:36:49.718Z,100676.63
2022-12-13T00:39:20.301Z,100669.63
2022-12-13T00:41:48.449Z,100672.56
2022-12-13T00:44:16.214Z,100669.81
2022-12-13T00:46:44.416Z,100665.34
2022-12-13T00:49:13.672Z,100667.75
2022-12-13T00:51:41.766Z,100660.88
2022-12-13T00:54:11.658Z,100660.28
2022-12-13T00:56:39.492Z,100659.03
2022-12-13T00:59:07.354Z,100651.53
2022-12-13T01:01:37.339Z,100652.09
2022-12-13T01:04:06.615Z,100648.94
2022-12-13T01:06:37.754Z,100650.00
2022-12-13T01:09:07.860Z,100646.13
2022-12-13T01:11:36.883Z,100646.13
2022-12-13T01:14:05.000Z,100654.91
2022-12-13T01:16:32.821Z,100648.44
2022-12-13T01:19:00.608Z,100657.56
2022-12-13T01:21:29.746Z,100655.56
2022-12-13T01:24:04.563Z,100648.09
2022-12-13T01:26:33.067Z,100651.66
2022-12-13T01:29:02.343Z,100644.47
2022-12-13T01:31:30.098Z,100649.22
2022-12-13T01:33:58.281Z,100642.28
2022-12-13T01:36:27.332Z,100640.22
2022-12-13T01:38:58.473Z,100641.81
2022-12-13T01:41:28.740Z,100643.50
2022-12-13T01:44:03.041Z,100654.47
2022-12-13T01:46:33.857Z,100642.19
2022-12-13T01:49:19.725Z,100646.25
2022-12-13T01:51:52.760Z,100645.31
2022-12-13T01:54:23.956Z,100644.16
2022-12-13T01:57:00.792Z,100646.31
2022-12-13T01:59:29.224Z,100645.63
2022-12-13T02:02:00.986Z,100645.94
2022-12-13T02:04:32.563Z,100647.00
2022-12-13T02:07:00.654Z,100654.16
2022-12-13T02:09:29.860Z,100647.72
2022-12-13T02:11:57.676Z,100653.88
2022-12-13T02:14:25.417Z,100655.16
2022-12-13T02:17:01.259Z,100657.25
2022-12-13T02:20:02.571Z,100659.28
2022-12-13T02:22:49.968Z,100657.41
2022-12-13T02:25:35.012Z,100663.50
2022-12-13T02:28:30.677Z,100659.78
2022-12-13T02:31:07.785Z,100656.63
2022-12-13T02:33:51.291Z,100647.22
2022-12-13T02:36:26.809Z,100647.25
2022-12-13T02:39:00.352Z,100642.66
2022-12-13T02:41:37.105Z,100642.16
2022-12-13T02:44:22.187Z,100633.47
2022-12-13T02:46:56.117Z,100625.91
2022-12-13T02:49:26.562Z,100632.38
2022-12-13T02:51:55.354Z,100620.59
2022-12-13T02:54:24.303Z,100623.31
2022-12-13T02:56:55.932Z,100630.47
2022-12-13T02:59:27.996Z,100624.00
2022-12-13T03:02:10.342Z,100631.19
2022-12-13T03:05:03.085Z,100627.28
2022-12-13T03:07:39.832Z,100625.81
2022-12-13T03:10:16.819Z,100626.47
2022-12-13T03:13:11.592Z,100626.00
2022-12-13T03:15:44.825Z,100627.88
2022-12-13T03:18:16.552Z,100629.03
2022-12-13T03:20:48.609Z,100627.19
2022-12-13T03:23:17.979Z,100621.50
2022-12-13T03:25:48.265Z,100619.56
2022-12-13T03:28:16.132Z,100624.31
2022-12-13T03:30:43.858Z,100615.41
2022-12-13T03:33:11.717Z,100607.91
2022-12-13T03:35:44.804Z,100610.72
2022-12-13T03:38:21.930Z,100614.88
2022-12-13T03:40:53.223Z,100607.28
2022-12-13T03:43:22.458Z,100613.84
2022-12-13T03:45:51.209Z,100613.97
2022-12-13T03:48:22.887Z,100604.22
2022-12-13T03:50:53.549Z,100601.97
2022-12-13T03:53:33.498Z,100588.59
2022-12-13T03:56:05.355Z,100596.31
2022-12-13T03:58:37.976Z,100604.97
2022-12-13T04:01:07.621Z,100601.69
2022-12-13T04:03:35.585Z,100601.69
2022-12-13T04:06:05.654Z,100597.72
2022-12-13T04:08:33.452Z,100606.53
2022-12-13T04:11:21.145Z,100608.84
2022-12-13T04:13:47.968Z,100603.44
2022-12-13T04:16:15.731Z,100609.72
2022-12-13T04:18:43.822Z,100616.06
2022-12-13T04:21:12.918Z,100611.63
2022-12-13T04:23:40.636Z,100613.44
2022-12-13T04:26:08.382Z,100618.31
2022-12-13T04:28:36.151Z,100615.78
2022-12-13T04:31:03.900Z,100619.78
2022-12-13T04:33:32.602Z,100617.44
2022-12-13T04:36:00.539Z,100613.31
2022-12-13T04:38:29.603Z,100612.88
2022-12-13T04:41:06.195Z,100607.59
2022-12-13T04:43:33.892Z,100610.50
2022-12-13T04:46:01.630Z,100603.63
2022-12-13T04:48:30.297Z,100607.13
2022-12-13T04:51:01.249Z,100609.25
2022-12-13T04:53:31.001Z,100614.94
2022-12-13T04:55:58.847Z,100610.28
2022-12-13T04:58:26.725Z,100608.81
2022-12-13T05:00:54.485Z,100606.41
2022-12-13T05:03:22.364Z,100603.28
2022-12-13T05:05:50.295Z,100601.91
2022-12-13T05:08:18.254Z,100599.47
2022-12-13T05:10:47.417Z,100595.34
2022-12-13T05:13:15.145Z,100595.47
2022-12-13T05:15:42.841Z,100589.31
2022-12-13T05:18:11.385Z,100593.03
2022-12-13T05:20:39.969Z,100584.22
2022-12-13T05:23:07.836Z,100581.38
2022-12-13T05:25:36.704Z,100587.63
2022-12-13T05:28:08.759Z,100581.97
2022-12-13T05:30:55.141Z,100580.34
2022-12-13T05:33:23.202Z,100575.28
2022-12-13T05:35:54.946Z,100579.16
2022-12-13T05:38:25.605Z,100581.59
2022-12-13T05:40:53.302Z,100586.41
2022-12-13T05:43:23.841Z,100576.41
2022-12-13T05:46:10.342Z,100573.63
2022-12-13T05:48:39.280Z,100573.88
2022-12-13T05:51:10.453Z,100570.28
2022-12-13T05:53:40.499Z,100581.81
2022-12-13T05:56:09.091Z,100581.81
2022-12-13T05:58:39.928Z,100589.72
2022-12-13T06:01:09.184Z,100584.41
2022-12-13T06:03:38.442Z,100583.78
2022-12-13T06:06:08.496Z,100573.75
2022-12-13T06:08:36.520Z,100579.59
2022-12-13T06:11:10.413Z,100583.84
2022-12-13T06:13:42.540Z,100583.00
2022-12-13T06:16:23.319Z,100579.22
2022-12-13T06:19:01.313Z,100581.13
2022-12-13T06:21:41.789Z,100582.09
2022-12-13T06:24:14.706Z,100583.66
2022-12-13T06:26:42.468Z,100583.94
2022-12-13T06:29:24.616Z,100586.41
2022-12-13T06:32:02.515Z,100590.94
2022-12-13T06:34:32.824Z,100587.56
2022-12-13T06:37:01.115Z,100584.06
2022-12-13T06:39:32.853Z,100590.44
2022-12-13T06:42:02.625Z,100581.25
2022-12-13T06:44:31.769Z,100587.09
2022-12-13T06:47:10.578Z,100591.53
2022-12-13T06:49:41.609Z,100588.88
2022-12-13T06:52:11.701Z,100593.03
2022-12-13T06:54:39.727Z,100595.16
2022-12-13T06:57:07.509Z,100590.38
2022-12-13T06:59:36.714Z,100592.97
2022-12-13T07:02:04.613Z,100599.13
2022-12-13T07:04:32.581Z,100594.81
2022-12-13T07:07:01.832Z,100603.53
2022-12-13T07:09:30.677Z,100602.22
2022-12-13T07:11:59.207Z,100605.75
2022-12-13T07:14:27.310Z,100606.41
2022-12-13T07:17:03.097Z,100608.00
2022-12-13T07:19:34.907Z,100614.47
2022-12-13T07:22:06.216Z,100604.94
2022-12-13T07:24:35.213Z,100612.22
2022-12-13T07:27:04.691Z,100615.56
2022-12-13T07:29:32.545Z,100616.53
2022-12-13T07:32:02.271Z,100614.28
2022-12-13T07:34:30.829Z,100626.69
2022-12-13T07:36:59.034Z,100628.91
2022-12-13T07:39:27.231Z,100628.59
2022-12-13T07:41:56.498Z,100625.63
2022-12-13T07:44:24.393Z,100631.47
2022-12-13T07:46:52.236Z,100631.16
2022-12-13T07:49:21.410Z,100622.56
2022-12-13T07:51:49.282Z,100625.09
2022-12-13T07:54:17.596Z,100622.56
2022-12-13T07:56:45.934Z,100617.34
2022-12-13T07:59:14.308Z,100623.88
2022-12-13T08:01:42.226Z,100620.22
2022-12-13T08:04:10.144Z,100624.84
2022-12-13T08:06:41.580Z,100622.31
2022-12-13T08:09:09.725Z,100633.53
2022-12-13T08:11:37.489Z,100634.41
2022-12-13T08:14:06.216Z,100637.06
2022-12-13T08:16:34.090Z,100633.69
2022-12-13T08:19:04.358Z,100632.75
2022-12-13T08:21:55.022Z,100632.06
2022-12-13T08:24:26.169Z,100633.97
2022-12-13T08:26:54.024Z,100638.63
2022-12-13T08:29:33.654Z,100632.66
2022-12-13T08:32:04.315Z,100634.97
2022-12-13T08:34:32.576Z,100638.69
2022-12-13T08:37:01.611Z,100630.28
2022-12-13T08:39:34.473Z,100627.13
2022-12-13T08:42:16.812Z,100632.53
2022-12-13T08:44:47.265Z,100634.88
2022-12-13T08:47:24.519Z,100630.44
2022-12-13T08:49:54.071Z,100627.63
2022-12-13T08:52:24.117Z,100627.72
2022-12-13T08:54:53.231Z,100625.09
2022-12-13T08:57:21.708Z,100632.03
2022-12-13T08:59:49.720Z,100632.22
2022-12-13T09:02:17.663Z,100633.44
2022-12-13T09:04:45.845Z,100632.72
2022-12-13T09:07:14.029Z,100635.78
2022-12-13T09:09:41.795Z,100641.59
2022-12-13T09:12:30.373Z,100635.81
2022-12-13T09:15:01.630Z,100640.88
2022-12-13T09:17:37.262Z,100637.28
2022-12-13T09:20:10.125Z,100643.47
2022-12-13T09:23:02.040Z,100650.09
2022-12-13T09:25:36.693Z,100629.97
2022-12-13T09:28:09.495Z,100640.84
2022-12-13T09:30:38.652Z,100645.19
2022-12-13T09:33:28.601Z,100641.75
2022-12-13T09:35:55.069Z,100640.94
2022-12-13T09:38:22.839Z,100649.03
2022-12-13T09:40:59.067Z,100652.19
2022-12-13T09:43:42.571Z,100642.03
2022-12-13T09:46:34.898Z,100649.19
2022-12-13T09:49:23.329Z,100641.06
2022-12-13T09:52:11.615Z,100644.16
2022-12-13T09:54:48.162Z,100634.75
2022-12-13T09:57:30.977Z,100635.44
2022-12-13T10:00:03.730Z,100637.13
2022-12-13T10:02:34.725Z,100638.25
2022-12-13T10:05:22.943Z,100636.66
2022-12-13T10:07:55.809Z,100635.91
2022-12-13T10:10:24.485Z,100626.44
2022-12-13T10:13:00.534Z,100622.88
2022-12-13T10:15:32.405Z,100622.53
2022-12-13T10:18:03.708Z,100625.75
2022-12-13T10:20:31.756Z,100625.31
2022-12-13T10:23:31.197Z,100617.59
2022-12-13T10:25:51.526Z,100617.38
2022-12-13T10:28:25.871Z,100623.19
2022-12-13T10:30:55.913Z,100617.28
2022-12-13T10:33:26.637Z,100617.41
2022-12-13T10:36:09.562Z,100605.25
2022-12-13T10:38:40.776Z,100613.81
2022-12-13T10:41:31.041Z,100614.16
2022-12-13T10:44:17.979Z,100623.97
2022-12-13T10:46:53.857Z,100611.28
2022-12-13T10:49:25.102Z,100613.09
2022-12-13T10:51:54.261Z,100612.88
2022-12-13T10:54:28.490Z,100613.09
2022-12-13T10:57:00.275Z,100609.94
2022-12-13T10:59:35.650Z,100611.16
2022-12-13T11:02:28.932Z,100609.84
2022-12-13T11:04:59.603Z,100599.09
2022-12-13T11:07:30.325Z,100596.59
2022-12-13T11:10:04.999Z,100596.94
2022-12-13T11:12:34.287Z,100588.38
2022-12-13T11:15:06.372Z,100592.00
2022-12-13T11:17:45.559Z,100583.91
2022-12-13T11:20:20.768Z,100581.25
2022-12-13T11:22:49.314Z,100576.16
2022-12-13T11:25:22.369Z,100570.88
2022-12-13T11:28:05.667Z,100567.34
2022-12-13T11:31:04.929Z,100571.94
2022-12-13T11:33:47.829Z,100566.41
2022-12-13T11:36:28.845Z,100563.09
2022-12-13T11:39:13.215Z,100548.25
2022-12-13T11:41:45.964Z,100555.88
2022-12-13T11:44:18.843Z,100556.59
2022-12-13T11:46:52.352Z,100553.09
2022-12-13T11:49:34.133Z,100551.03
2022-12-13T11:52:07.025Z,100545.25
2022-12-13T11:54:41.045Z,100544.75
2022-12-13T11:57:21.909Z,100537.63
2022-12-13T12:00:02.295Z,100549.78
2022-12-13T12:02:34.630Z,100545.53
2022-12-13T12:05:07.567Z,100549.25
2022-12-13T12:07:58.526Z,100534.50
2022-12-13T12:10:33.127Z,100539.44
2022-12-13T12:13:08.391Z,100539.94
2022-12-13T12:15:42.446Z,100524.94
2022-12-13T12:18:15.637Z,100519.09
2022-12-13T12:20:57.283Z,100512.97
2022-12-13T12:23:46.221Z,100510.75
2022-12-13T12:26:20.866Z,100504.84
2022-12-13T12:29:12.107Z,100498.75
2022-12-13T12:31:53.255Z,100494.31
2022-12-13T12:34:33.772Z,100497.56
2022-12-13T12:37:17.594Z,100500.50
2022-12-13T12:39:56.177Z,100502.19
2022-12-13T12:43:13.254Z,100507.09
2022-12-13T12:45:58.011Z,100508.88
2022-12-13T12:48:56.517Z,100512.16
2022-12-13T12:51:36.776Z,100512.38
2022-12-13T12:54:27.431Z,100510.50
2022-12-13T12:57:07.563Z,100515.53
2022-12-13T12:59:46.504Z,100502.75
2022-12-13T13:02:22.704Z,100506.66
2022-12-13T13:04:58.632Z,100507.44
2022-12-13T13:07:32.308Z,100501.28
2022-12-13T13:10:16.869Z,100500.19
2022-12-13T13:13:11.306Z,100492.34
2022-12-13T13:15:57.173Z,100490.06
2022-12-13T13:18:46.735Z,100487.53
2022-12-13T13:21:33.193Z,100495.66
2022-12-13T13:24:16.613Z,100496.81
2022-12-13T13:26:48.002Z,100492.69
2022-12-13T13:29:27.785Z,100492.41
2022-12-13T13:32:01.431Z,100490.16
2022-12-13T13:34:31.697Z,100484.25
2022-12-13T13:36:59.717Z,100491.25
2022-12-13T13:39:56.861Z,100485.66
2022-12-13T13:42:27.444Z,100489.59
2022-12-13T13:45:20.056Z,100488.91
2022-12-13T13:48:03.610Z,100494.28
2022-12-13T13:51:22.573Z,100485.84
2022-12-13T13:54:27.664Z,100483.31
2022-12-13T13:58:07.232Z,100494.28
2022-12-13T14:00:22.607Z,100497.34
2022-12-13T14:03:32.853Z,100509.34
2022-12-13T14:06:32.428Z,100509.22
2022-12-13T14:09:52.743Z,100509.72
2022-12-13T14:12:50.041Z,100504.41
2022-12-13T14:15:49.561Z,100503.22
2022-12-13T14:18:53.352Z,100492.88
2022-12-13T14:21:29.888Z,100489.25
2022-12-13T14:24:13.906Z,100489.09
2022-12-13T14:26:58.329Z,100482.50
2022-12-13T14:29:31.601Z,100483.75
2022-12-13T14:32:01.418Z,100481.78
2022-12-13T14:34:31.818Z,100482.75
2022-12-13T14:37:02.004Z,100483.50
2022-12-13T14:39:31.195Z,100488.31
2022-12-13T14:42:01.144Z,100492.28
2022-12-13T14:44:34.405Z,100492.53
2022-12-13T14:47:06.210Z,100505.00
2022-12-13T14:49:38.137Z,100510.41
2022-12-13T14:52:12.141Z,100506.94
2022-12-13T14:54:58.132Z,100507.88
2022-12-13T14:57:30.371Z,100502.72
2022-12-13T15:00:00.449Z,100510.22
2022-12-13T15:02:32.398Z,100505.97
2022-12-13T15:05:03.982Z,100495.69
2022-12-13T15:07:36.397Z,100502.91
2022-12-13T15:10:08.856Z,100505.44
2022-12-13T15:12:37.778Z,100504.22
2022-12-13T15:15:09.347Z,100505.69
2022-12-13T15:17:42.268Z,100503.94
2022-12-13T15:20:24.745Z,100502.84
2022-12-13T15:22:59.612Z,100499.78
2022-12-13T15:25:28.052Z,100494.38
2022-12-13T15:27:56.589Z,100495.94
2022-12-13T15:30:30.577Z,100494.22
2022-12-13T15:33:08.891Z,100488.19
2022-12-13T15:35:37.927Z,100490.72
2022-12-13T15:38:06.055Z,100497.19
2022-12-13T15:40:34.536Z,100494.69
2022-12-13T15:43:02.781Z,100495.00
2022-12-13T15:45:36.905Z,100501.63
2022-12-13T15:48:07.218Z,100500.47
2022-12-13T15:50:36.753Z,100490.63
2022-12-13T15:53:07.255Z,100497.19
2022-12-13T15:55:37.065Z,100488.94
2022-12-13T15:58:21.607Z,100489.25
2022-12-13T16:00:50.362Z,100486.38
2022-12-13T16:03:23.175Z,100484.06
2022-12-13T16:05:53.755Z,100477.66
2022-12-13T16:08:28.470Z,100474.19
2022-12-13T16:10:57.540Z,100467.03
2022-12-13T16:13:27.407Z,100479.03
2022-12-13T16:16:08.935Z,100469.09
2022-12-13T16:18:47.090Z,100471.75
2022-12-13T16:21:15.217Z,100472.38
2022-12-13T16:23:48.122Z,100467.00
2022-12-13T16:26:22.951Z,100457.34
2022-12-13T16:28:50.906Z,100461.00
2022-12-13T16:31:21.468Z,100454.19
2022-12-13T16:33:50.766Z,100451.81
2022-12-13T16:36:19.370Z,100449.19
2022-12-13T16:38:47.275Z,100446.66
2022-12-13T16:41:16.717Z,100443.50
2022-12-13T16:43:54.751Z,100448.53
2022-12-13T16:47:11.548Z,100440.94
2022-12-13T16:49:20.578Z,100446.66
2022-12-13T16:51:49.319Z,100453.13
2022-12-13T16:54:18.460Z,100460.75
2022-12-13T16:56:46.476Z,100454.47
2022-12-13T16:59:16.048Z,100464.16
2022-12-13T17:01:45.331Z,100446.50
2022-12-13T17:04:20.199Z,100449.78
2022-12-13T17:06:50.924Z,100440.44
2022-12-13T17:09:22.434Z,100439.78
2022-12-13T17:11:50.293Z,100445.41
2022-12-13T17:14:18.377Z,100447.63
2022-12-13T17:16:46.364Z,100438.41
2022-12-13T17:19:17.300Z,100446.84
2022-12-13T17:21:45.774Z,100443.00
2022-12-13T17:24:15.302Z,100439.41
2022-12-13T17:26:53.715Z,100442.28
2022-12-13T17:29:22.170Z,100436.53
2022-12-13T17:31:51.244Z,100441.34
2022-12-13T17:34:19.066Z,100436.31
2022-12-13T17:36:48.082Z,100434.75
2022-12-13T17:39:17.425Z,100434.88
2022-12-13T17:41:54.690Z,100433.19
2022-12-13T17:44:24.213Z,100434.53
2022-12-13T17:46:54.557Z,100433.31
2022-12-13T17:49:23.550Z,100426.31
2022-12-13T17:51:54.503Z,100429.84
2022-12-13T17:54:25.238Z,100434.50
2022-12-13T17:56:54.536Z,100435.09
2022-12-13T17:59:23.087Z,100436.91
2022-12-13T18:01:51.977Z,100435.94
2022-12-13T18:04:20.489Z,100438.34
2022-12-13T18:06:48.549Z,100440.88
2022-12-13T18:09:16.529Z,100446.94
2022-12-13T18:11:45.802Z,100433.06
2022-12-13T18:14:13.738Z,100432.56
2022-12-13T18:16:41.988Z,100431.84
2022-12-13T18:19:14.156Z,100429.22
2022-12-13T18:21:43.229Z,100433.19
2022-12-13T18:24:11.975Z,100426.56
2022-12-13T18:26:40.263Z,100421.41
2022-12-13T18:29:09.805Z,100428.06
2022-12-13T18:31:37.811Z,100426.72
2022-12-13T18:34:06.042Z,100423.13
2022-12-13T18:36:34.888Z,100427.34
2022-12-13T18:39:02.919Z,100429.75
2022-12-13T18:41:33.140Z,100430.94
2022-12-13T18:44:02.782Z,100431.56
2022-12-13T18:46:35.832Z,100418.91
2022-12-13T18:49:05.841Z,100421.81
2022-12-13T18:51:34.121Z,100419.03
2022-12-13T18:54:02.023Z,100410.81
2022-12-13T18:56:29.813Z,100410.72
2022-12-13T18:58:58.302Z,100412.63
2022-12-13T19:01:28.759Z,100409.50
2022-12-13T19:03:58.055Z,100407.59
2022-12-13T19:06:28.364Z,100410.94
2022-12-13T19:08:58.101Z,100412.91
2022-12-13T19:11:27.275Z,100410.97
2022-12-13T19:13:55.809Z,100403.25
2022-12-13T19:16:24.734Z,100399.41
2022-12-13T19:18:52.569Z,100402.53
2022-12-13T19:21:23.121Z,100404.84
2022-12-13T19:23:57.062Z,100396.91
2022-12-13T19:26:26.695Z,100397.84
2022-12-13T19:28:56.629Z,100392.81
2022-12-13T19:31:30.508Z,100394.13
2022-12-13T19:33:59.895Z,100393.91
2022-12-13T19:36:29.080Z,100387.63
2022-12-13T19:38:56.943Z,100386.16
2022-12-13T19:41:25.009Z,100387.63
2022-12-13T19:43:54.240Z,100382.81
2022-12-13T19:46:22.596Z,100384.47
2022-12-13T19:48:50.433Z,100377.50
2022-12-13T19:51:18.474Z,100380.66
2022-12-13T19:53:47.520Z,100380.66
2022-12-13T19:56:17.709Z,100376.66
2022-12-13T19:58:46.927Z,100376.44
2022-12-13T20:01:16.203Z,100373.75
2022-12-13T20:03:46.216Z,100365.59
2022-12-13T20:06:17.194Z,100364.50
2022-12-13T20:08:46.989Z,100356.88
2022-12-13T20:11:19.029Z,100358.97
2022-12-13T20:13:47.211Z,100354.84
2022-12-13T20:16:17.175Z,100358.72
2022-12-13T20:18:44.888Z,100349.53
2022-12-13T20:21:14.695Z,100348.81
2022-12-13T20:23:49.471Z,100339.91
2022-12-13T20:26:21.748Z,100353.19
2022-12-13T20:28:50.437Z,100350.53
2022-12-13T20:31:20.240Z,100345.22
2022-12-13T20:33:48.929Z,100346.19
2022-12-13T20:36:26.422Z,100338.63
2022-12-13T20:38:56.437Z,100343.91
2022-12-13T20:41:27.259Z,100338.34
2022-12-13T20:43:57.209Z,100332.81
2022-12-13T20:46:27.038Z,100327.63
2022-12-13T20:48:57.487Z,100328.72
2022-12-13T20:51:28.301Z,100315.84
2022-12-13T20:53:58.593Z,100318.25
2022-12-13T20:56:29.411Z,100325.72
2022-12-13T20:58:57.365Z,100315.94
2022-12-13T21:01:30.226Z,100318.47
2022-12-13T21:04:01.009Z,100311.34
2022-12-13T21:06:29.710Z,100319.50
2022-12-13T21:09:02.324Z,100315.78
2022-12-13T21:11:35.081Z,100309.97
2022-12-13T21:14:09.197Z,100306.25
2022-12-13T21:16:42.695Z,100301.00
2022-12-13T21:19:12.608Z,100299.69
2022-12-13T21:21:40.847Z,100295.72
2022-12-13T21:24:10.025Z,100290.91
2022-12-13T21:26:39.510Z,100293.66
2022-12-13T21:29:10.783Z,100291.84
2022-12-13T21:31:40.778Z,100294.50
2022-12-13T21:34:09.200Z,100285.50
2022-12-13T21:36:39.768Z,100290.53
2022-12-13T21:39:12.698Z,100288.97
2022-12-13T21:41:42.644Z,100285.25
2022-12-13T21:44:11.798Z,100274.44
2022-12-13T21:47:10.768Z,100279.94
2022-12-13T21:49:28.855Z,100278.03
2022-12-13T21:51:57.552Z,100279.00
2022-12-13T21:54:25.648Z,100278.53
2022-12-13T21:57:12.435Z,100282.59
2022-12-13T21:59:40.661Z,100277.69
2022-12-13T22:02:14.983Z,100277.03
2022-12-13T22:04:45.175Z,100273.09
2022-12-13T22:07:15.588Z,100278.50
2022-12-13T22:09:44.135Z,100269.13
2022-12-13T22:12:20.521Z,100279.00
2022-12-13T22:14:48.796Z,100263.84
2022-12-13T22:17:17.067Z,100259.75
2022-12-13T22:19:48.293Z,100263.84
2022-12-13T22:22:18.152Z,100263.69
2022-12-13T22:24:53.474Z,100268.16
2022-12-13T22:27:27.572Z,100270.06
2022-12-13T22:29:57.645Z,100259.00
2022-12-13T22:32:26.217Z,100261.31
2022-12-13T22:34:54.277Z,100260.91
2022-12-13T22:37:23.110Z,100258.19
2022-12-13T22:39:51.153Z,100249.13
2022-12-13T22:42:18.974Z,100255.16
2022-12-13T22:44:48.613Z,100260.81
2022-12-13T22:47:16.417Z,100246.00
2022-12-13T22:49:44.420Z,100247.69
2022-12-13T22:52:16.663Z,100240.25
2022-12-13T22:54:44.440Z,100241.81
2022-12-13T22:57:12.163Z,100246.50
2022-12-13T22:59:40.034Z,100237.44
2022-12-13T23:02:09.696Z,100230.78
2022-12-13T23:04:39.315Z,100231.88
2022-12-13T23:07:07.095Z,100232.91
2022-12-13T23:09:34.765Z,100230.25
2022-12-13T23:12:20.036Z,100226.03
2022-12-13T23:14:47.819Z,100220.41
2022-12-13T23:17:16.986Z,100215.16
2022-12-13T23:19:48.768Z,100210.94
2022-12-13T23:22:18.839Z,100207.59
2022-12-13T23:24:46.589Z,100216.63
2022-12-13T23:27:14.409Z,100208.09
2022-12-13T23:29:43.503Z,100213.03
2022-12-13T23:32:12.077Z,100205.69
2022-12-13T23:34:41.148Z,100208.47
2022-12-13T23:37:08.872Z,100205.69
2022-12-13T23:39:37.862Z,100202.91
2022-12-13T23:42:06.601Z,100205.81
2022-12-13T23:44:34.584Z,100205.81
2022-12-13T23:47:02.645Z,100189.09
2022-12-13T23:49:30.363Z,100181.28
2022-12-13T23:51:59.426Z,100183.66
2022-12-13T23:54:27.040Z,100183.56
2022-12-13T23:56:54.896Z,100181.50
2022-12-13T23:59:25.664Z,100177.28
